Time;durP1;ratioP1;P1;durP2;ratioP2;P2;SDS_P1;SDS_P2;PMS_P1;PMS_P2;Temp;Humidity;BMP_temperature;BMP_pressure;BME280_temperature;BME280_humidity;BME280_pressure;Samples;Min_cycle;Max_cycle;Signal;HPM_P1;HPM_P2
2023/12/13 00:00:24;;;;;;;9.57;4.88;;;;;;;2.45;79.49;94513.72;5095016;28;20066;-77
2023/12/13 00:02:50;;;;;;;10.27;6.05;;;;;;;2.41;77.49;94528.44;5104766;28;20020;-77
2023/12/13 00:05:15;;;;;;;10.13;5.15;;;;;;;2.32;77.72;94520.44;5093369;28;20036;-76
2023/12/13 00:07:40;;;;;;;7.05;4.70;;;;;;;2.42;80.13;94532.69;5092064;28;20032;-76
2023/12/13 00:10:06;;;;;;;9.18;4.70;;;;;;;2.41;81.01;94532.75;5102838;28;20050;-77
2023/12/13 00:12:32;;;;;;;8.07;4.68;;;;;;;2.44;81.63;94527.44;5105462;28;20097;-77
2023/12/13 00:14:57;;;;;;;7.78;4.50;;;;;;;2.39;81.30;94511.50;5100713;28;20031;-77
2023/12/13 00:17:23;;;;;;;8.07;4.53;;;;;;;2.59;80.76;94531.75;5095230;28;20531;-76
2023/12/13 00:19:48;;;;;;;7.53;4.93;;;;;;;2.60;80.26;94528.25;5097274;28;20053;-77
2023/12/13 00:22:14;;;;;;;6.35;4.43;;;;;;;2.64;79.92;94544.28;5102146;28;20039;-77
2023/12/13 00:24:39;;;;;;;9.05;5.00;;;;;;;2.71;79.85;94552.47;5094823;28;20035;-76
2023/12/13 00:27:04;;;;;;;6.90;4.70;;;;;;;2.73;79.59;94535.25;5094513;28;20054;-77
2023/12/13 00:29:30;;;;;;;9.13;4.28;;;;;;;2.71;79.48;94535.34;5073525;28;20044;-76
2023/12/13 00:31:55;;;;;;;6.68;4.25;;;;;;;2.71;80.08;94519.13;5100008;28;20093;-77
2023/12/13 00:34:21;;;;;;;37.05;16.45;;;;;;;2.73;79.05;94527.53;5093577;28;20039;-77
2023/12/13 00:36:46;;;;;;;26.33;13.63;;;;;;;2.46;79.53;94505.94;5090148;28;20036;-76
2023/12/13 00:39:11;;;;;;;13.98;7.70;;;;;;;2.50;80.14;94532.22;5092880;28;20111;-77
2023/12/13 00:41:37;;;;;;;9.18;5.18;;;;;;;2.66;79.22;94524.50;5105671;28;20035;-77
2023/12/13 00:44:03;;;;;;;23.48;14.30;;;;;;;2.64;78.83;94514.31;5099024;28;20400;-76
2023/12/13 00:46:29;;;;;;;20.08;12.75;;;;;;;2.71;78.51;94521.69;5099564;28;20080;-77
2023/12/13 00:48:54;;;;;;;19.50;11.88;;;;;;;2.59;78.79;94523.19;5076752;28;20035;-77
2023/12/13 00:51:21;;;;;;;20.70;11.05;;;;;;;2.68;78.07;94520.94;5091477;28;20430;-77
2023/12/13 00:53:46;;;;;;;11.52;6.03;;;;;;;2.54;78.45;94518.34;5091150;28;20422;-77
2023/12/13 00:56:12;;;;;;;10.45;6.80;;;;;;;2.61;78.91;94524.75;5109025;28;20027;-77
2023/12/13 00:58:37;;;;;;;8.23;4.75;;;;;;;2.71;77.46;94516.56;5078814;28;20024;-76
2023/12/13 01:01:03;;;;;;;12.32;7.20;;;;;;;2.64;77.15;94521.19;5093654;28;20044;-77
2023/12/13 01:03:29;;;;;;;16.42;9.50;;;;;;;2.39;77.85;94507.19;5090939;28;20094;-77
2023/12/13 01:05:54;;;;;;;16.85;10.48;;;;;;;2.05;79.30;94495.41;5073168;28;20032;-77
2023/12/13 01:08:20;;;;;;;19.75;12.40;;;;;;;2.40;78.72;94502.91;5095688;28;20588;-77
2023/12/13 01:10:45;;;;;;;48.60;26.45;;;;;;;2.31;78.80;94482.88;5093089;28;20107;-77
2023/12/13 01:13:11;;;;;;;27.70;15.18;;;;;;;2.19;79.20;94477.53;5090742;28;20047;-77
2023/12/13 01:15:37;;;;;;;33.08;18.92;;;;;;;1.92;79.48;94454.28;5103241;28;20385;-77
2023/12/13 01:18:03;;;;;;;25.40;14.93;;;;;;;2.15;79.97;94482.94;5112505;28;20020;-77
2023/12/13 01:20:28;;;;;;;22.88;14.30;;;;;;;2.21;79.18;94465.47;5083859;28;20028;-77
2023/12/13 01:22:54;;;;;;;37.50;20.70;;;;;;;2.16;79.18;94452.06;5099366;28;20527;-76
2023/12/13 01:25:19;;;;;;;36.25;21.48;;;;;;;1.94;80.18;94454.19;5093190;28;20457;-77
2023/12/13 01:27:45;;;;;;;30.83;21.08;;;;;;;1.83;80.31;94418.06;5110028;28;20366;-77
2023/12/13 01:30:10;;;;;;;30.50;19.55;;;;;;;1.77;80.05;94440.53;5085433;28;20510;-76
2023/12/13 01:32:35;;;;;;;27.90;18.33;;;;;;;1.79;80.32;94427.66;5090217;28;20713;-77
2023/12/13 01:35:01;;;;;;;27.15;17.92;;;;;;;1.55;79.60;94378.59;5072597;28;20044;-77
2023/12/13 01:37:27;;;;;;;57.50;28.83;;;;;;;1.63;80.28;94437.91;5103314;28;20467;-77
2023/12/13 01:39:56;;;;;;;73.03;30.63;;;;;;;1.72;80.55;94451.94;5074593;28;20092;-77
2023/12/13 01:42:22;;;;;;;56.20;30.70;;;;;;;1.69;80.61;94467.50;5106169;28;20037;-77
2023/12/13 01:44:47;;;;;;;45.33;27.85;;;;;;;1.61;81.51;94460.22;5076980;28;20036;-77
2023/12/13 01:47:13;;;;;;;19.95;13.27;;;;;;;1.67;82.32;94459.91;5088709;28;20072;-77
2023/12/13 01:49:38;;;;;;;32.78;21.92;;;;;;;1.55;83.43;94473.34;5095405;28;20409;-77
2023/12/13 01:52:04;;;;;;;27.88;19.10;;;;;;;1.74;82.90;94470.63;5099417;28;20393;-77
2023/12/13 01:54:29;;;;;;;30.08;19.40;;;;;;;1.55;83.29;94455.41;5090037;28;20066;-77
2023/12/13 01:56:55;;;;;;;22.77;13.65;;;;;;;1.77;82.35;94463.59;5088260;28;20035;-77
2023/12/13 01:59:20;;;;;;;18.60;13.27;;;;;;;1.82;82.31;94442.88;5076033;28;20493;-77
2023/12/13 02:01:46;;;;;;;20.40;13.85;;;;;;;1.83;82.66;94443.69;5062505;28;20028;-77
2023/12/13 02:04:12;;;;;;;18.08;11.35;;;;;;;1.77;82.67;94422.63;5073215;28;20028;-77
2023/12/13 02:06:38;;;;;;;17.48;10.85;;;;;;;1.73;82.89;94413.47;5094152;28;20075;-77
2023/12/13 02:09:03;;;;;;;139.95;48.40;;;;;;;1.70;83.44;94418.75;5089348;28;20087;-77
2023/12/13 02:11:29;;;;;;;40.97;24.15;;;;;;;1.74;83.23;94430.47;5072954;28;20036;-77
2023/12/13 02:13:56;;;;;;;23.65;15.10;;;;;;;1.79;82.34;94420.81;5090459;28;20416;-77
2023/12/13 02:16:21;;;;;;;30.83;19.00;;;;;;;2.10;81.26;94423.41;5100681;28;20044;-77
2023/12/13 02:18:47;;;;;;;30.45;18.08;;;;;;;2.00;81.95;94413.66;5089885;28;20027;-77
2023/12/13 02:21:12;;;;;;;20.15;13.13;;;;;;;2.01;82.22;94399.13;5100467;28;20032;-77
2023/12/13 02:23:37;;;;;;;20.52;13.98;;;;;;;2.06;82.73;94394.56;5108283;28;20129;-77
2023/12/13 02:26:05;;;;;;;22.92;17.40;;;;;;;1.86;83.28;94387.16;5100821;28;20028;-77
2023/12/13 02:28:30;;;;;;;22.58;14.52;;;;;;;2.13;82.75;94374.56;5106037;28;20028;-76
2023/12/13 02:30:57;;;;;;;22.45;13.65;;;;;;;2.27;82.69;94396.84;5090315;28;20043;-77
2023/12/13 02:33:24;;;;;;;24.13;15.57;;;;;;;2.42;81.73;94401.91;5072543;28;20028;-77
2023/12/13 02:35:50;;;;;;;18.83;12.40;;;;;;;2.41;81.49;94391.75;5088779;28;20440;-77
2023/12/13 02:38:16;;;;;;;12.20;8.30;;;;;;;2.30;82.10;94387.22;5091881;28;20024;-76
2023/12/13 02:40:41;;;;;;;16.33;12.40;;;;;;;2.41;81.76;94391.75;5100229;28;20035;-77
2023/12/13 02:43:06;;;;;;;15.88;10.48;;;;;;;2.36;81.87;94396.28;5099609;28;20046;-77
2023/12/13 02:45:32;;;;;;;23.52;15.88;;;;;;;1.89;82.76;94346.00;5100480;28;20061;-77
2023/12/13 02:47:59;;;;;;;15.30;11.10;;;;;;;2.27;82.35;94332.75;5099388;28;20067;-77
2023/12/13 02:50:25;;;;;;;14.02;9.23;;;;;;;2.07;82.92;94291.16;5072774;28;20131;-77
2023/12/13 02:52:50;;;;;;;16.52;10.90;;;;;;;2.22;83.24;94340.69;5088233;28;20108;-76
2023/12/13 02:55:16;;;;;;;16.88;10.85;;;;;;;2.36;83.06;94362.97;5072502;28;20047;-77
2023/12/13 02:57:41;;;;;;;15.27;8.48;;;;;;;2.47;82.48;94368.31;5104819;28;20516;-77
2023/12/13 03:00:08;;;;;;;15.70;9.88;;;;;;;2.46;81.99;94377.75;5089290;28;20024;-77
2023/12/13 03:02:34;;;;;;;17.75;11.98;;;;;;;2.64;80.82;94375.81;5088490;28;20032;-77
2023/12/13 03:05:00;;;;;;;26.85;20.65;;;;;;;2.26;81.44;94369.53;5093812;28;20040;-77
2023/12/13 03:07:26;;;;;;;26.48;18.63;;;;;;;2.61;80.79;94376.00;5092700;28;20096;-77
2023/12/13 03:09:51;;;;;;;26.55;18.30;;;;;;;2.41;80.56;94373.78;5107251;28;20504;-77
2023/12/13 03:12:17;;;;;;;26.65;17.73;;;;;;;2.44;80.25;94368.47;5107851;28;20047;-76
2023/12/13 03:14:42;;;;;;;25.73;16.88;;;;;;;2.60;79.75;94379.50;5075669;28;20524;-77
2023/12/13 03:17:07;;;;;;;25.55;16.75;;;;;;;2.38;79.34;94359.41;5094066;28;20039;-77
2023/12/13 03:19:33;;;;;;;26.33;15.68;;;;;;;2.34;79.64;94367.34;5105981;28;20046;-77
2023/12/13 03:21:58;;;;;;;25.63;16.92;;;;;;;1.97;80.77;94372.03;5095024;28;20032;-77
2023/12/13 03:24:24;;;;;;;24.13;17.13;;;;;;;2.14;81.14;94379.56;5066640;28;20028;-77
2023/12/13 03:26:49;;;;;;;30.92;19.65;;;;;;;1.92;81.96;94379.13;5110058;28;20417;-77
2023/12/13 03:29:14;;;;;;;26.15;17.67;;;;;;;2.20;80.77;94379.25;5108100;28;20032;-76
2023/12/13 03:31:40;;;;;;;24.13;16.17;;;;;;;2.33;80.07;94386.22;5084535;28;20059;-77
2023/12/13 03:34:06;;;;;;;23.52;16.00;;;;;;;2.19;79.63;94397.25;5104405;28;20038;-77
2023/12/13 03:36:31;;;;;;;24.40;16.88;;;;;;;2.24;80.35;94414.03;5094929;28;20042;-77
2023/12/13 03:38:56;;;;;;;22.67;15.63;;;;;;;2.17;80.46;94392.25;5092841;28;20410;-77
2023/12/13 03:41:23;;;;;;;22.00;14.85;;;;;;;2.22;80.72;94409.91;5090112;28;20032;-77
2023/12/13 03:43:48;;;;;;;24.65;14.80;;;;;;;2.33;79.88;94386.22;5091471;28;20027;-77
2023/12/13 03:46:14;;;;;;;18.05;12.27;;;;;;;2.05;81.51;94400.59;5109019;28;20097;-77
2023/12/13 03:48:39;;;;;;;18.08;12.15;;;;;;;1.89;82.75;94412.59;5074609;28;20414;-77
2023/12/13 03:51:05;;;;;;;17.52;11.60;;;;;;;2.03;82.39;94404.97;5102502;28;20482;-77
2023/12/13 03:53:34;;;;;;;17.77;10.85;;;;;;;2.00;82.74;94407.72;5081051;28;20036;-77
2023/12/13 03:55:59;;;;;;;19.10;11.77;;;;;;;2.22;82.72;94409.91;5103937;28;20040;-76
2023/12/13 03:58:25;;;;;;;19.98;11.93;;;;;;;2.40;81.99;94395.22;5075446;28;20098;-77
2023/12/13 04:00:51;;;;;;;15.85;9.73;;;;;;;2.17;81.88;94394.81;5093443;28;20030;-77
2023/12/13 04:03:16;;;;;;;17.48;11.07;;;;;;;2.08;83.13;94397.03;5093436;28;20051;-77
2023/12/13 04:05:42;;;;;;;17.92;11.35;;;;;;;2.34;83.05;94377.59;5088025;28;20089;-77
2023/12/13 04:08:08;;;;;;;19.80;11.73;;;;;;;2.27;82.90;94371.19;5094287;28;20039;-76
2023/12/13 04:10:33;;;;;;;15.75;11.25;;;;;;;2.04;83.38;94381.03;5092034;28;20047;-76
2023/12/13 04:12:59;;;;;;;15.75;10.88;;;;;;;2.36;82.62;94350.16;5092394;28;20059;-76
2023/12/13 04:15:24;;;;;;;195.63;80.72;;;;;;;2.24;83.14;94367.91;5107581;27;20034;-76
2023/12/13 04:17:50;;;;;;;77.30;37.47;;;;;;;2.26;84.20;94375.50;5129727;27;20134;-76
2023/12/13 04:20:16;;;;;;;48.72;32.33;;;;;;;2.33;83.59;94346.03;5097364;28;20043;-77
2023/12/13 04:22:42;;;;;;;24.38;14.73;;;;;;;2.39;83.86;94352.53;5108827;28;20024;-77
2023/12/13 04:25:08;;;;;;;24.25;14.82;;;;;;;2.22;84.92;94364.59;5118357;27;20085;-77
2023/12/13 04:27:33;;;;;;;24.65;16.38;;;;;;;2.52;84.48;94368.88;5110419;28;20477;-77
2023/12/13 04:29:58;;;;;;;24.65;16.95;;;;;;;2.62;83.25;94346.91;5075732;28;20137;-76
2023/12/13 04:32:24;;;;;;;21.98;14.65;;;;;;;2.45;84.14;94357.31;5090179;28;20029;-77
2023/12/13 04:34:49;;;;;;;19.25;13.35;;;;;;;2.52;83.82;94339.84;5103659;28;20035;-76
2023/12/13 04:37:15;;;;;;;17.35;11.63;;;;;;;2.61;82.92;94300.81;5074312;28;20456;-77
2023/12/13 04:39:40;;;;;;;17.00;10.88;;;;;;;2.61;83.18;94334.16;5084266;28;20475;-77
2023/12/13 04:42:06;;;;;;;16.48;10.07;;;;;;;2.27;83.20;94281.50;5101909;28;20020;-77
2023/12/13 04:44:31;;;;;;;15.48;10.43;;;;;;;2.87;82.36;94317.19;5112091;28;20443;-77
2023/12/13 04:46:57;;;;;;;13.32;8.15;;;;;;;2.71;82.26;94312.19;5100276;28;20036;-76
2023/12/13 04:49:22;;;;;;;14.45;9.25;;;;;;;2.81;82.75;94340.66;5095983;28;20024;-76
2023/12/13 04:51:48;;;;;;;21.35;14.57;;;;;;;2.89;82.11;94356.41;5099433;28;20023;-77
2023/12/13 04:54:14;;;;;;;25.52;16.23;;;;;;;2.73;82.29;94323.19;5094794;28;20027;-77
2023/12/13 04:56:39;;;;;;;24.38;16.13;;;;;;;2.78;81.92;94316.00;5110885;28;20035;-76
2023/12/13 04:59:05;;;;;;;21.27;14.35;;;;;;;2.73;82.08;94327.47;5109830;28;20042;-77
2023/12/13 05:01:30;;;;;;;21.38;14.20;;;;;;;2.81;81.71;94326.09;5091616;27;20032;-77
2023/12/13 05:03:56;;;;;;;20.70;12.90;;;;;;;2.68;82.22;94326.00;5091484;28;20031;-76
2023/12/13 05:06:21;;;;;;;16.33;11.40;;;;;;;2.77;81.50;94311.00;5074347;28;20043;-76
2023/12/13 05:08:47;;;;;;;17.83;11.32;;;;;;;2.79;81.26;94311.72;5073976;28;20024;-76
2023/12/13 05:11:12;;;;;;;19.40;12.35;;;;;;;2.49;81.33;94317.75;5103277;28;20433;-76
2023/12/13 05:13:37;;;;;;;34.30;17.35;;;;;;;2.73;81.46;94341.13;5090911;28;20039;-76
2023/12/13 05:16:03;;;;;;;49.58;28.42;;;;;;;2.57;81.29;94318.13;5100894;28;20055;-76
2023/12/13 05:18:29;;;;;;;47.10;25.42;;;;;;;2.54;82.14;94312.38;5081274;28;20086;-76
2023/12/13 05:20:54;;;;;;;31.42;19.27;;;;;;;2.81;80.56;94297.88;5102098;28;20048;-76
2023/12/13 05:23:20;;;;;;;28.83;14.65;;;;;;;2.59;79.88;94284.69;5095302;28;20051;-76
2023/12/13 05:25:45;;;;;;;27.17;15.88;;;;;;;2.62;80.62;94264.84;5101405;28;20482;-76
2023/12/13 05:28:11;;;;;;;22.27;13.15;;;;;;;2.47;80.51;94234.97;5072258;28;20020;-76
2023/12/13 05:30:36;;;;;;;22.98;14.02;;;;;;;2.05;82.09;94239.19;5079297;28;20059;-76
2023/12/13 05:33:02;;;;;;;28.30;18.02;;;;;;;2.28;82.40;94252.38;5072694;28;20456;-76
2023/12/13 05:35:27;;;;;;;29.63;19.48;;;;;;;2.19;82.12;94239.19;5090424;28;20139;-76
2023/12/13 05:37:53;;;;;;;34.13;20.58;;;;;;;2.23;81.71;94263.72;5092821;28;20026;-76
2023/12/13 05:40:18;;;;;;;37.47;24.42;;;;;;;2.18;81.99;94296.50;5101602;28;20016;-76
2023/12/13 05:42:44;;;;;;;41.17;27.77;;;;;;;2.12;82.83;94322.47;5106603;28;20042;-76
2023/12/13 05:45:09;;;;;;;34.40;24.17;;;;;;;2.19;81.30;94295.56;5076599;28;20482;-76
2023/12/13 05:47:35;;;;;;;33.50;22.13;;;;;;;2.32;81.29;94328.19;5082895;28;20519;-76
2023/12/13 05:50:00;;;;;;;28.35;21.08;;;;;;;2.19;81.94;94341.69;5091435;28;20575;-76
2023/12/13 05:52:26;;;;;;;26.58;18.67;;;;;;;2.17;81.87;94332.44;5108349;28;20020;-76
2023/12/13 05:54:51;;;;;;;21.70;14.90;;;;;;;2.03;82.79;94301.66;5069223;28;20040;-76
2023/12/13 05:57:16;;;;;;;23.75;15.32;;;;;;;1.95;83.51;94320.03;5092334;28;20024;-76
2023/12/13 05:59:42;;;;;;;30.83;18.60;;;;;;;2.07;83.55;94319.34;5081974;28;20036;-76
2023/12/13 06:02:11;;;;;;;28.35;19.52;;;;;;;2.09;83.60;94332.91;5087852;28;20107;-76
2023/12/13 06:04:36;;;;;;;27.83;16.85;;;;;;;2.21;82.89;94326.25;5070213;28;20109;-76
2023/12/13 06:07:02;;;;;;;17.88;12.60;;;;;;;2.32;82.73;94300.00;5085699;28;20024;-76
2023/12/13 06:09:29;;;;;;;25.48;15.75;;;;;;;2.22;83.23;94297.94;5068526;28;20077;-76
2023/12/13 06:11:54;;;;;;;19.63;12.15;;;;;;;2.17;83.50;94287.16;5087927;28;20173;-77
2023/12/13 06:14:19;;;;;;;16.52;11.57;;;;;;;2.10;83.41;94262.78;5085370;28;20478;-76
2023/12/13 06:16:45;;;;;;;16.15;11.07;;;;;;;2.28;84.08;94309.56;5088561;28;20521;-76
2023/12/13 06:19:10;;;;;;;16.77;10.23;;;;;;;2.42;83.76;94319.03;5085909;28;20050;-76
2023/12/13 06:21:36;;;;;;;16.55;10.15;;;;;;;2.44;83.89;94312.06;5055007;28;20040;-76
2023/12/13 06:24:02;;;;;;;16.52;10.02;;;;;;;2.60;83.75;94320.50;5090261;28;20024;-76
2023/12/13 06:26:28;;;;;;;16.88;9.75;;;;;;;2.62;84.17;94310.19;5077183;28;20024;-76
2023/12/13 06:28:53;;;;;;;15.50;9.55;;;;;;;2.71;84.37;94298.53;5091562;28;20092;-76
2023/12/13 06:31:19;;;;;;;15.35;10.63;;;;;;;2.78;84.02;94279.28;5085644;28;20044;-76
2023/12/13 06:33:44;;;;;;;18.55;10.80;;;;;;;2.94;83.60;94272.28;5072195;28;20040;-76
2023/12/13 06:36:09;;;;;;;15.68;10.13;;;;;;;2.80;83.48;94251.81;5086258;28;20032;-75
2023/12/13 06:38:35;;;;;;;29.40;16.73;;;;;;;2.71;84.60;94253.19;5085738;28;20035;-76
2023/12/13 06:41:00;;;;;;;30.98;18.02;;;;;;;2.75;84.36;94262.34;5085312;28;20089;-76
2023/12/13 06:43:26;;;;;;;31.98;18.30;;;;;;;2.92;84.07;94256.16;5084784;28;20088;-76
2023/12/13 06:45:51;;;;;;;17.13;10.50;;;;;;;2.98;83.48;94278.06;5087567;28;20039;-76
2023/12/13 06:48:16;;;;;;;17.55;10.82;;;;;;;3.01;83.63;94265.88;5085814;28;20028;-75
2023/12/13 06:50:42;;;;;;;15.05;9.82;;;;;;;3.04;83.72;94254.59;5088369;28;20421;-75
2023/12/13 06:53:07;;;;;;;18.83;11.95;;;;;;;3.08;84.20;94228.63;5073988;28;20413;-75
2023/12/13 06:55:33;;;;;;;19.83;12.50;;;;;;;3.23;83.54;94232.00;5090212;28;20106;-75
2023/12/13 06:57:58;;;;;;;27.55;17.67;;;;;;;3.13;83.86;94212.97;5085587;28;20710;-76
2023/12/13 07:00:27;;;;;;;44.33;23.65;;;;;;;3.07;83.83;94203.09;5068556;28;20100;-76
2023/12/13 07:02:53;;;;;;;32.47;17.85;;;;;;;3.35;83.11;94223.50;5090148;28;20028;-76
2023/12/13 07:05:18;;;;;;;29.55;17.02;;;;;;;3.23;83.48;94223.44;5090183;28;20046;-76
2023/12/13 07:07:46;;;;;;;27.35;16.98;;;;;;;3.30;83.65;94247.81;5090076;28;20442;-76
2023/12/13 07:10:12;;;;;;;36.13;22.15;;;;;;;3.56;81.62;94246.97;5071410;28;20111;-76
2023/12/13 07:12:37;;;;;;;35.33;22.90;;;;;;;3.58;81.46;94250.28;5075206;28;20089;-78
2023/12/13 07:15:03;;;;;;;36.85;22.45;;;;;;;3.65;81.79;94265.28;5075044;28;20093;-77
2023/12/13 07:17:29;;;;;;;25.20;18.60;;;;;;;3.73;81.18;94258.75;5085293;28;20081;-77
2023/12/13 07:19:54;;;;;;;25.92;16.55;;;;;;;3.75;81.18;94263.78;5071517;28;20044;-77
2023/12/13 07:22:19;;;;;;;25.98;17.00;;;;;;;3.59;81.79;94256.22;5056318;28;20097;-77
2023/12/13 07:24:46;;;;;;;24.52;16.58;;;;;;;3.88;81.57;94268.94;5091201;28;20032;-77
2023/12/13 07:27:11;;;;;;;26.13;17.52;;;;;;;3.74;81.59;94251.88;5089782;28;20028;-77
2023/12/13 07:29:40;;;;;;;23.35;16.73;;;;;;;4.01;81.16;94262.91;5093867;28;20043;-77
2023/12/13 07:32:06;;;;;;;21.17;13.88;;;;;;;4.01;80.73;94260.34;5074522;28;20044;-77
2023/12/13 07:34:31;;;;;;;19.42;11.75;;;;;;;4.20;79.86;94261.69;5090809;28;20028;-77
2023/12/13 07:36:56;;;;;;;17.65;11.63;;;;;;;4.27;79.21;94267.25;5073953;28;20032;-77
2023/12/13 07:39:24;;;;;;;15.82;11.07;;;;;;;4.41;79.29;94255.09;5087327;28;20087;-77
2023/12/13 07:41:49;;;;;;;16.80;11.07;;;;;;;4.64;77.97;94250.16;5089536;28;20495;-77
2023/12/13 07:44:16;;;;;;;21.63;12.55;;;;;;;4.61;77.85;94256.31;5089833;28;20032;-77
2023/12/13 07:46:41;;;;;;;21.85;15.30;;;;;;;4.74;78.26;94251.16;5092950;28;20078;-77
2023/12/13 07:49:06;;;;;;;20.02;13.98;;;;;;;4.58;77.65;94220.50;5077415;28;20046;-76
2023/12/13 07:51:32;;;;;;;21.40;15.18;;;;;;;4.80;78.41;94247.34;5092573;28;20028;-75
2023/12/13 07:54:01;;;;;;;21.30;13.75;;;;;;;4.86;78.13;94245.16;5063079;28;20036;-74
2023/12/13 07:56:26;;;;;;;23.05;14.55;;;;;;;5.14;77.14;94248.38;5092958;28;20032;-77
2023/12/13 07:58:52;;;;;;;21.00;14.00;;;;;;;5.19;76.79;94225.72;5075875;28;20038;-77
2023/12/13 08:01:17;;;;;;;18.38;13.20;;;;;;;5.29;76.50;94236.16;5081447;28;20032;-77
2023/12/13 08:03:45;;;;;;;19.13;14.23;;;;;;;5.24;77.42;94246.81;5075061;28;20031;-75
2023/12/13 08:06:14;;;;;;;21.02;14.00;;;;;;;5.37;76.45;94239.00;5095449;28;20083;-77
2023/12/13 08:08:39;;;;;;;17.45;12.60;;;;;;;5.11;77.03;94258.91;5079743;28;20028;-77
2023/12/13 08:11:06;;;;;;;25.63;16.75;;;;;;;5.00;78.06;94261.41;5088847;28;20093;-77
2023/12/13 08:13:32;;;;;;;21.63;14.05;;;;;;;5.12;77.58;94270.84;5073614;28;20131;-77
2023/12/13 08:15:57;;;;;;;24.15;15.77;;;;;;;5.04;77.88;94266.25;5090461;28;20024;-77
2023/12/13 08:18:23;;;;;;;23.95;15.73;;;;;;;5.09;77.32;94238.41;5073632;28;20044;-78
2023/12/13 08:20:48;;;;;;;28.90;17.67;;;;;;;5.26;75.97;94238.97;5099150;28;20031;-77
2023/12/13 08:23:14;;;;;;;30.48;18.30;;;;;;;5.15;77.21;94227.69;5094469;28;20375;-77
2023/12/13 08:25:40;;;;;;;26.73;18.40;;;;;;;4.98;77.08;94233.19;5078715;28;20024;-77
2023/12/13 08:28:06;;;;;;;35.78;20.65;;;;;;;4.69;78.06;94223.16;5064549;28;20512;-77
2023/12/13 08:30:31;;;;;;;29.50;20.23;;;;;;;4.69;78.29;94209.47;5092041;28;20048;-77
2023/12/13 08:32:57;;;;;;;28.60;19.20;;;;;;;4.96;77.29;94226.50;5093943;28;20575;-79
2023/12/13 08:35:22;;;;;;;31.88;20.50;;;;;;;4.86;78.08;94240.00;5095639;28;20463;-77
2023/12/13 08:37:48;;;;;;;29.13;20.65;;;;;;;4.98;77.37;94233.19;5095319;28;20023;-78
2023/12/13 08:40:14;;;;;;;28.90;20.88;;;;;;;4.91;77.93;94237.94;5112555;28;20031;-77
2023/12/13 08:42:39;;;;;;;31.58;21.48;;;;;;;4.95;77.12;94238.53;5095500;28;20024;-77
2023/12/13 08:45:05;;;;;;;31.60;20.33;;;;;;;5.16;76.82;94251.69;5112513;28;20035;-77
2023/12/13 08:47:30;;;;;;;29.20;20.67;;;;;;;5.13;77.18;94247.56;5112190;28;20061;-78
2023/12/13 08:49:56;;;;;;;35.85;22.27;;;;;;;5.06;77.75;94245.53;5095257;28;20024;-77
2023/12/13 08:52:21;;;;;;;33.88;22.77;;;;;;;5.38;76.78;94246.66;5078479;28;20028;-77
2023/12/13 08:54:47;;;;;;;37.03;22.90;;;;;;;5.50;75.77;94236.41;5078177;28;20046;-77
2023/12/13 08:57:12;;;;;;;34.65;22.60;;;;;;;5.57;74.61;94235.84;5111835;28;20028;-77
2023/12/13 08:59:37;;;;;;;33.60;21.92;;;;;;;5.38;75.68;94230.38;5112203;28;20023;-77
2023/12/13 09:02:03;;;;;;;34.42;23.23;;;;;;;5.70;75.38;94251.22;5113380;28;20019;-78
2023/12/13 09:04:28;;;;;;;36.42;23.67;;;;;;;5.54;75.44;94246.38;5078329;28;20023;-77
2023/12/13 09:06:54;;;;;;;38.65;24.60;;;;;;;5.48;75.96;94248.56;5077873;28;20044;-78
2023/12/13 09:09:19;;;;;;;37.25;24.88;;;;;;;5.70;75.25;94217.72;5112198;28;20031;-77
2023/12/13 09:11:46;;;;;;;36.42;24.33;;;;;;;5.53;75.87;94236.16;5095007;28;20043;-77
2023/12/13 09:14:12;;;;;;;40.13;24.83;;;;;;;5.65;75.80;94217.22;5111972;28;20023;-77
2023/12/13 09:16:38;;;;;;;39.65;26.08;;;;;;;5.65;74.88;94217.22;5094532;28;20513;-77
2023/12/13 09:19:05;;;;;;;34.47;23.15;;;;;;;5.69;74.69;94210.94;5078464;28;20182;-77
2023/12/13 09:21:30;;;;;;;33.08;23.98;;;;;;;5.39;75.75;94221.72;5094856;28;20059;-77
2023/12/13 09:23:55;;;;;;;46.65;28.33;;;;;;;5.37;77.25;94193.47;5110467;28;20062;-77
2023/12/13 09:26:21;;;;;;;39.70;25.35;;;;;;;5.47;76.55;94177.38;5112632;28;20046;-77
2023/12/13 09:28:46;;;;;;;43.83;26.77;;;;;;;5.45;77.99;94176.66;5094681;28;20033;-77
2023/12/13 09:31:12;;;;;;;47.22;25.83;;;;;;;5.71;76.41;94167.84;5111624;28;20059;-77
2023/12/13 09:33:37;;;;;;;39.42;26.90;;;;;;;5.54;77.45;94157.94;5077556;28;20036;-77
2023/12/13 09:36:03;;;;;;;44.75;29.77;;;;;;;5.78;76.87;94165.63;5110967;28;20039;-77
2023/12/13 09:38:30;;;;;;;51.00;33.03;;;;;;;6.07;75.91;94175.53;5094489;28;20480;-77
2023/12/13 09:40:55;;;;;;;42.28;28.83;;;;;;;6.10;75.52;94186.47;5094479;28;20055;-77
2023/12/13 09:43:22;;;;;;;43.13;27.95;;;;;;;6.11;75.17;94207.91;5111248;28;20119;-78
2023/12/13 09:45:50;;;;;;;43.75;29.02;;;;;;;6.34;74.64;94209.56;5094113;28;20032;-77
2023/12/13 09:48:21;;;;;;;40.33;27.77;;;;;;;6.20;73.44;94195.13;5077630;28;20099;-77
2023/12/13 09:50:46;;;;;;;;;;;;;;;6.21;73.50;94175.31;5079359;28;20035;-77
2023/12/13 09:53:12;;;;;;;39.97;27.10;;;;;;;6.21;73.08;94173.59;5128202;27;19915;-77
2023/12/13 09:55:37;;;;;;;40.60;26.77;;;;;;;6.24;72.91;94172.50;5093821;28;20058;-77
2023/12/13 09:58:03;;;;;;;41.80;27.17;;;;;;;6.22;72.78;94158.91;5094191;28;20031;-77
2023/12/13 10:00:28;;;;;;;49.08;29.02;;;;;;;6.17;73.15;94133.47;5093988;28;20035;-77
2023/12/13 10:02:53;;;;;;;41.08;29.15;;;;;;;6.39;73.19;94144.72;5110931;28;20015;-77
2023/12/13 10:05:19;;;;;;;54.60;32.55;;;;;;;6.48;73.14;94134.50;5093611;28;20035;-77
2023/12/13 10:07:44;;;;;;;43.38;28.33;;;;;;;6.70;71.58;94122.53;5093960;28;20032;-77
2023/12/13 10:10:10;;;;;;;44.22;28.30;;;;;;;6.54;71.47;94135.78;5077159;28;20048;-77
2023/12/13 10:12:37;;;;;;;42.72;28.88;;;;;;;6.75;72.04;94135.06;5112060;28;20027;-77
2023/12/13 10:15:07;;;;;;;62.45;42.70;;;;;;;6.79;71.16;94120.97;5110490;28;20031;-77
2023/12/13 10:17:33;;;;;;;54.22;35.63;;;;;;;6.78;71.19;94106.44;5077461;28;20370;-77
2023/12/13 10:19:58;;;;;;;39.35;26.20;;;;;;;6.66;71.28;94106.47;5110754;28;20046;-77
2023/12/13 10:22:24;;;;;;;37.78;24.40;;;;;;;6.65;71.39;94094.47;5076882;28;20031;-77
2023/12/13 10:24:49;;;;;;;40.97;26.05;;;;;;;6.74;70.68;94092.13;5110460;28;20046;-77
2023/12/13 10:27:14;;;;;;;34.45;22.63;;;;;;;6.61;70.57;94077.59;5110606;28;20030;-77
2023/12/13 10:29:40;;;;;;;32.70;22.02;;;;;;;6.90;70.18;94089.97;5110313;28;20038;-77
2023/12/13 10:32:05;;;;;;;33.75;21.85;;;;;;;6.96;69.48;94061.06;5093643;28;20039;-77
2023/12/13 10:34:31;;;;;;;35.33;22.05;;;;;;;7.00;69.64;94052.13;5094849;28;20512;-77
2023/12/13 10:36:56;;;;;;;48.35;21.27;;;;;;;6.89;68.89;94042.66;5100403;28;20039;-77
2023/12/13 10:39:25;;;;;;;28.23;19.13;;;;;;;6.89;69.26;94047.84;5100642;28;20023;-77
2023/12/13 10:41:55;;;;;;;33.10;20.02;;;;;;;6.77;69.68;94029.91;5083401;28;20192;-77
2023/12/13 10:44:20;;;;;;;26.83;18.95;;;;;;;6.67;69.65;94022.91;5100217;28;20057;-77
2023/12/13 10:46:46;;;;;;;32.53;21.52;;;;;;;6.55;70.25;94015.34;5083416;28;20040;-78
2023/12/13 10:49:18;;;;;;;27.48;19.17;;;;;;;6.57;70.47;94006.50;5100522;28;20035;-77
2023/12/13 10:51:46;;;;;;;27.90;18.83;;;;;;;6.80;69.51;94029.66;5100332;28;20441;-77
2023/12/13 10:54:12;;;;;;;28.98;18.85;;;;;;;6.84;68.43;94010.41;5083063;28;20038;-77
2023/12/13 10:56:38;;;;;;;28.02;19.15;;;;;;;6.49;71.16;93983.09;5100246;28;20035;-77
2023/12/13 10:59:04;;;;;;;31.23;19.55;;;;;;;6.44;71.00;94021.34;5100315;28;20047;-77
2023/12/13 11:01:29;;;;;;;29.50;20.10;;;;;;;6.40;71.61;94000.13;5100196;28;20044;-77
2023/12/13 11:04:04;;;;;;;31.58;22.55;;;;;;;6.96;70.59;94045.56;5117005;28;20031;-77
2023/12/13 11:06:30;;;;;;;27.95;18.42;;;;;;;6.71;70.28;94032.06;5118179;27;20031;-77
2023/12/13 11:08:55;;;;;;;29.85;18.17;;;;;;;6.79;71.03;94023.69;5100457;27;20366;-77
2023/12/13 11:11:26;;;;;;;27.13;17.50;;;;;;;7.13;69.65;94010.63;5083181;28;20035;-77
2023/12/13 11:13:54;;;;;;;23.80;17.15;;;;;;;7.06;69.34;94005.16;5100081;27;20027;-77
2023/12/13 11:16:24;;;;;;;23.48;17.25;;;;;;;7.32;68.90;94031.41;5082877;28;20043;-77
2023/12/13 11:18:51;;;;;;;28.67;19.60;;;;;;;7.29;68.95;94015.34;5100147;28;20038;-78